Richmond, Ohio
Current Conditions -  °F | °C
As of 10:53 AM on Wednesday 28 Jan 2015 (Local Time) from KHLG Reporting Station
Scattered Clouds Scattered Clouds  
Wind Chill: -14°   Ceiling: Unl
Heat Index: -9°   Visibility: 10mi
Dew Point: -12°   Wind: 6mph
Humidity: 80%   Direction: 270°W
Pressure: 30.35"   Gusts: NA
Location:  40.43°N, 80.77°W
Report Text: KHLG 281553Z 27005KT 10SM SCT011 M09/M12 A3035 RMK AO2 SLP304 T10941122
Loading
Personal Weather Stations






























Interactive Weather Map New forecast layout! Learn more

10-Day Weather Forecast

Advertisements
Track Severe Weather on mobile